createdAt,value
2018-09-03T00:00:33.151Z,45.30
2018-09-03T00:03:00.361Z,40.10
2018-09-03T00:05:27.760Z,45.33
2018-09-03T00:07:55.068Z,45.10
2018-09-03T00:10:22.366Z,41.87
2018-09-03T00:12:49.618Z,44.07
2018-09-03T00:15:16.889Z,41.70
2018-09-03T00:17:44.109Z,43.20
2018-09-03T00:20:11.427Z,42.90
2018-09-03T00:22:38.653Z,51.00
2018-09-03T00:25:06.401Z,48.60
2018-09-03T00:27:33.651Z,56.77
2018-09-03T00:30:00.879Z,47.67
2018-09-03T00:32:33.771Z,54.57
2018-09-03T00:35:06.749Z,52.07
2018-09-03T00:37:39.699Z,52.67
2018-09-03T00:40:12.683Z,42.87
2018-09-03T00:42:45.445Z,52.00
2018-09-03T00:45:18.322Z,53.93
2018-09-03T00:47:45.631Z,50.47
2018-09-03T00:50:12.819Z,47.03
2018-09-03T00:52:40.083Z,50.40
2018-09-03T00:55:07.383Z,48.83
2018-09-03T00:57:34.673Z,52.40
2018-09-03T01:00:02.160Z,55.43
2018-09-03T01:02:29.472Z,49.03
2018-09-03T01:04:56.639Z,46.07
2018-09-03T01:07:23.962Z,42.83
2018-09-03T01:09:51.243Z,44.87
2018-09-03T01:12:18.480Z,51.10
2018-09-03T01:14:45.747Z,51.07
2018-09-03T01:17:12.978Z,46.47
2018-09-03T01:19:40.246Z,44.43
2018-09-03T01:22:07.477Z,44.47
2018-09-03T01:24:34.757Z,50.47
2018-09-03T01:27:02.005Z,52.80
2018-09-03T01:29:29.296Z,53.50
2018-09-03T01:31:56.602Z,53.67
2018-09-03T01:34:24.583Z,50.03
2018-09-03T01:36:51.875Z,49.60
2018-09-03T01:39:19.171Z,51.23
2018-09-03T01:41:46.450Z,50.60
2018-09-03T01:44:13.712Z,51.30
2018-09-03T01:46:40.952Z,49.37
2018-09-03T01:49:08.154Z,56.27
2018-09-03T01:51:35.407Z,46.10
2018-09-03T01:54:02.666Z,53.10
2018-09-03T01:56:29.882Z,56.83
2018-09-03T01:58:57.132Z,63.17
2018-09-03T02:01:24.473Z,47.07
2018-09-03T02:03:51.757Z,55.17
2018-09-03T02:06:19.164Z,53.97
2018-09-03T02:08:46.313Z,53.03
2018-09-03T02:11:13.694Z,56.40
2018-09-03T02:13:41.017Z,53.80
2018-09-03T02:16:08.384Z,68.43
2018-09-03T02:18:35.644Z,57.20
2018-09-03T02:21:02.971Z,60.23
2018-09-03T02:23:30.181Z,49.00
2018-09-03T02:25:57.452Z,52.93
2018-09-03T02:28:24.734Z,57.87
2018-09-03T02:30:51.887Z,56.83
2018-09-03T02:33:19.142Z,50.80
2018-09-03T02:35:46.421Z,48.17
2018-09-03T02:38:13.695Z,53.10
2018-09-03T02:40:40.970Z,65.27
2018-09-03T02:43:08.253Z,60.33
2018-09-03T02:45:35.514Z,52.50
2018-09-03T02:48:02.767Z,57.33
2018-09-03T02:50:30.048Z,58.77
2018-09-03T02:52:57.211Z,63.60
2018-09-03T02:55:24.518Z,53.43
2018-09-03T02:57:51.752Z,63.80
2018-09-03T03:00:21.914Z,58.70
2018-09-03T03:02:49.126Z,54.37
2018-09-03T03:05:16.390Z,57.87
2018-09-03T03:07:43.658Z,62.70
2018-09-03T03:10:10.949Z,55.47
2018-09-03T03:12:38.124Z,59.37
2018-09-03T03:15:05.392Z,54.07
2018-09-03T03:17:32.704Z,48.30
2018-09-03T03:19:59.985Z,48.40
2018-09-03T03:22:27.241Z,53.80
2018-09-03T03:24:54.513Z,50.50
2018-09-03T03:27:21.725Z,51.20
2018-09-03T03:29:48.981Z,58.73
2018-09-03T03:32:16.304Z,61.10
2018-09-03T03:34:43.529Z,57.10
2018-09-03T03:37:10.794Z,52.77
2018-09-03T03:39:38.005Z,48.80
2018-09-03T03:42:05.613Z,54.10
2018-09-03T03:44:32.841Z,43.03
2018-09-03T03:47:00.131Z,49.93
2018-09-03T03:49:27.407Z,47.43
2018-09-03T03:51:54.625Z,40.07
2018-09-03T03:54:21.937Z,41.20
2018-09-03T03:56:49.184Z,39.43
2018-09-03T03:59:16.409Z,44.13
2018-09-03T04:01:43.641Z,46.30
2018-09-03T04:04:10.958Z,49.13
2018-09-03T04:06:38.246Z,49.67
2018-09-03T04:09:07.108Z,55.60
2018-09-03T04:11:34.407Z,57.97
2018-09-03T04:14:01.755Z,48.13
2018-09-03T04:16:28.970Z,47.87
2018-09-03T04:18:56.274Z,44.30
2018-09-03T04:21:23.512Z,47.77
2018-09-03T04:23:50.789Z,47.57
2018-09-03T04:26:18.006Z,47.67
2018-09-03T04:28:45.373Z,42.97
2018-09-03T04:33:52.228Z,50.77
2018-09-03T04:36:19.535Z,44.93
2018-09-03T04:38:46.970Z,50.63
2018-09-03T04:41:14.337Z,51.50
2018-09-03T04:43:41.722Z,45.53
2018-09-03T04:46:09.167Z,46.20
2018-09-03T04:48:36.434Z,53.10
2018-09-03T04:51:03.830Z,51.70
2018-09-03T04:53:31.062Z,58.50
2018-09-03T04:55:58.350Z,53.80
2018-09-03T04:58:25.674Z,57.90
2018-09-03T05:00:52.948Z,117.23
2018-09-03T05:03:20.155Z,66.70
2018-09-03T05:05:47.466Z,55.67
2018-09-03T05:08:14.731Z,49.57
2018-09-03T05:10:42.059Z,43.57
2018-09-03T05:13:09.339Z,50.80
2018-09-03T05:15:36.648Z,48.53
2018-09-03T05:18:04.079Z,47.50
2018-09-03T05:20:31.425Z,44.27
2018-09-03T05:22:58.806Z,45.00
2018-09-03T05:25:26.238Z,48.13
2018-09-03T05:27:53.487Z,44.90
2018-09-03T05:30:21.151Z,49.03
2018-09-03T05:32:48.483Z,43.13
2018-09-03T05:35:15.742Z,45.90
2018-09-03T05:37:42.990Z,45.60
2018-09-03T05:40:10.482Z,44.07
2018-09-03T05:42:37.917Z,38.97
2018-09-03T05:45:05.531Z,44.87
2018-09-03T05:47:32.767Z,46.10
2018-09-03T05:49:59.977Z,48.97
2018-09-03T05:52:27.388Z,47.63
2018-09-03T05:54:54.693Z,36.27
2018-09-03T05:57:22.086Z,45.10
2018-09-03T05:59:49.348Z,39.70
2018-09-03T06:02:16.621Z,42.00
2018-09-03T06:04:44.042Z,40.67
2018-09-03T06:07:11.244Z,49.13
2018-09-03T06:09:38.512Z,49.33
2018-09-03T06:12:05.657Z,50.57
2018-09-03T06:14:32.850Z,46.73
2018-09-03T06:17:00.250Z,46.80
2018-09-03T06:19:27.531Z,46.40
2018-09-03T06:21:54.956Z,44.07
2018-09-03T06:24:22.314Z,39.60
2018-09-03T06:26:49.676Z,51.73
2018-09-03T06:29:17.055Z,44.23
2018-09-03T06:31:44.312Z,46.20
2018-09-03T06:34:11.577Z,48.03
2018-09-03T06:36:38.887Z,43.67
2018-09-03T06:39:07.302Z,40.00
2018-09-03T06:41:34.589Z,42.03
2018-09-03T06:44:02.052Z,42.93
2018-09-03T06:46:29.364Z,42.37
2018-09-03T06:48:56.629Z,43.10
2018-09-03T06:51:23.992Z,34.30
2018-09-03T06:53:51.309Z,42.67
2018-09-03T06:56:18.630Z,43.93
2018-09-03T06:58:45.929Z,45.10
2018-09-03T07:01:13.360Z,46.67
2018-09-03T07:03:41.359Z,40.83
2018-09-03T07:06:08.928Z,42.73
2018-09-03T07:08:36.897Z,48.20
2018-09-03T07:11:04.386Z,45.73
2018-09-03T07:13:31.619Z,41.57
2018-09-03T07:15:58.890Z,39.40
2018-09-03T07:18:26.192Z,45.30
2018-09-03T07:20:53.418Z,39.77
2018-09-03T07:23:20.748Z,43.30
2018-09-03T07:25:47.988Z,46.40
2018-09-03T07:28:15.276Z,50.47
2018-09-03T07:30:42.615Z,43.03
2018-09-03T07:33:09.911Z,46.30
2018-09-03T07:35:37.189Z,39.47
2018-09-03T07:38:04.560Z,39.73
2018-09-03T07:40:31.822Z,33.60
2018-09-03T07:42:59.268Z,34.23
2018-09-03T07:45:26.596Z,38.37
2018-09-03T07:47:53.875Z,34.50
2018-09-03T07:50:21.168Z,35.33
2018-09-03T07:52:48.446Z,44.83
2018-09-03T07:55:15.812Z,41.20
2018-09-03T07:57:43.083Z,50.97
2018-09-03T08:00:10.520Z,45.53
2018-09-03T08:02:37.898Z,44.33
2018-09-03T08:05:05.582Z,42.40
2018-09-03T08:07:32.903Z,44.17
2018-09-03T08:10:00.271Z,32.33
2018-09-03T08:12:27.468Z,46.20
2018-09-03T08:14:54.754Z,37.10
2018-09-03T08:17:22.004Z,40.87
2018-09-03T08:19:49.328Z,38.97
2018-09-03T08:22:16.647Z,32.17
2018-09-03T08:24:43.945Z,37.40
2018-09-03T08:27:11.306Z,38.93
2018-09-03T08:29:38.640Z,28.93
2018-09-03T08:32:05.944Z,25.87
2018-09-03T08:34:33.248Z,28.60
2018-09-03T08:37:00.564Z,29.90
2018-09-03T08:39:27.836Z,28.20
2018-09-03T08:41:55.150Z,30.80
2018-09-03T08:44:22.411Z,32.90
2018-09-03T08:46:49.659Z,26.90
2018-09-03T08:49:17.077Z,36.13
2018-09-03T08:51:44.355Z,26.03
2018-09-03T08:54:11.676Z,25.23
2018-09-03T08:56:39.055Z,29.53
2018-09-03T08:59:06.425Z,30.87
2018-09-03T09:01:33.763Z,31.40
2018-09-03T09:04:01.227Z,30.30
2018-09-03T09:06:28.532Z,32.73
2018-09-03T09:08:55.861Z,26.90
2018-09-03T09:11:23.196Z,31.40
2018-09-03T09:13:50.496Z,34.90
2018-09-03T09:16:17.811Z,29.37
2018-09-03T09:18:45.153Z,39.60
2018-09-03T09:21:12.442Z,34.40
2018-09-03T09:23:39.757Z,32.00
2018-09-03T09:26:07.022Z,30.67
2018-09-03T09:28:34.316Z,29.00
2018-09-03T09:31:01.628Z,27.50
2018-09-03T09:33:28.839Z,36.27
2018-09-03T09:35:56.195Z,36.47
2018-09-03T09:38:23.471Z,31.10
2018-09-03T09:40:50.849Z,36.40
2018-09-03T09:43:18.275Z,32.73
2018-09-03T09:45:45.571Z,37.10
2018-09-03T09:48:12.976Z,35.43
2018-09-03T09:50:40.984Z,41.87
2018-09-03T09:53:08.196Z,49.93
2018-09-03T09:55:35.565Z,35.00
2018-09-03T09:58:02.831Z,29.27
2018-09-03T10:00:35.871Z,33.80
2018-09-03T10:03:03.080Z,39.37
2018-09-03T10:05:30.465Z,28.10
2018-09-03T10:07:57.766Z,28.37
2018-09-03T10:10:25.041Z,27.43
2018-09-03T10:12:52.361Z,26.80
2018-09-03T10:15:19.669Z,27.13
2018-09-03T10:17:46.893Z,26.60
2018-09-03T10:20:14.190Z,24.47
2018-09-03T10:22:41.467Z,24.00
2018-09-03T10:25:08.809Z,26.73
2018-09-03T10:27:36.087Z,26.27
2018-09-03T10:30:03.504Z,26.47
2018-09-03T10:32:31.521Z,22.83
2018-09-03T10:34:58.847Z,23.73
2018-09-03T10:37:26.222Z,27.20
2018-09-03T10:39:53.553Z,23.63
2018-09-03T10:42:24.828Z,31.30
2018-09-03T10:44:52.231Z,21.67
2018-09-03T10:47:19.684Z,20.63
2018-09-03T10:49:46.947Z,18.50
2018-09-03T10:52:14.297Z,22.10
2018-09-03T10:54:41.629Z,24.13
2018-09-03T10:57:08.974Z,24.97
2018-09-03T10:59:36.269Z,21.47
2018-09-03T11:02:03.588Z,19.93
2018-09-03T11:04:30.869Z,18.30
2018-09-03T11:06:58.099Z,18.57
2018-09-03T11:09:25.435Z,15.40
2018-09-03T11:11:52.779Z,15.80
2018-09-03T11:14:20.005Z,16.80
2018-09-03T11:16:47.315Z,15.30
2018-09-03T11:19:14.994Z,16.03
2018-09-03T11:21:42.342Z,11.60
2018-09-03T11:24:09.603Z,15.07
2018-09-03T11:26:36.895Z,12.93
2018-09-03T11:29:04.200Z,13.03
2018-09-03T11:31:31.578Z,11.27
2018-09-03T11:33:58.792Z,11.73
2018-09-03T11:36:26.064Z,10.23
2018-09-03T11:38:53.350Z,9.37
2018-09-03T11:41:20.586Z,12.30
2018-09-03T11:43:47.844Z,11.73
2018-09-03T11:46:15.150Z,16.43
2018-09-03T11:48:42.372Z,17.40
2018-09-03T11:51:09.636Z,18.00
2018-09-03T11:53:37.056Z,11.27
2018-09-03T11:56:04.370Z,14.53
2018-09-03T11:58:31.755Z,11.30
2018-09-03T12:01:00.002Z,13.10
2018-09-03T12:03:27.353Z,12.90
2018-09-03T12:05:55.348Z,16.57
2018-09-03T12:08:22.690Z,12.90
2018-09-03T12:10:49.967Z,9.77
2018-09-03T12:13:17.236Z,10.07
2018-09-03T12:15:49.074Z,9.83
2018-09-03T12:18:16.577Z,14.00
2018-09-03T12:20:43.843Z,16.70
2018-09-03T12:23:11.048Z,9.03
2018-09-03T12:25:38.948Z,12.10
2018-09-03T12:28:06.212Z,13.07
2018-09-03T12:30:33.481Z,10.77
2018-09-03T12:33:00.761Z,23.10
2018-09-03T12:35:28.120Z,9.60
2018-09-03T12:37:55.432Z,11.00
2018-09-03T12:40:22.687Z,9.87
2018-09-03T12:42:49.988Z,10.57
2018-09-03T12:45:21.429Z,10.80
2018-09-03T12:47:48.680Z,12.33
2018-09-03T12:50:15.938Z,11.70
2018-09-03T12:52:43.243Z,9.00
2018-09-03T12:55:10.488Z,13.93
2018-09-03T12:57:37.711Z,9.60
2018-09-03T13:00:05.677Z,11.67
2018-09-03T13:02:39.414Z,14.27
2018-09-03T13:04:59.590Z,10.30
2018-09-03T13:10:23.065Z,9.90
2018-09-03T13:12:50.357Z,9.27
2018-09-03T13:15:17.576Z,11.20
2018-09-03T13:17:44.917Z,12.30
2018-09-03T13:20:12.445Z,10.70
2018-09-03T13:22:39.773Z,12.10
2018-09-03T13:25:07.214Z,10.67
2018-09-03T13:27:34.457Z,10.63
2018-09-03T13:30:01.814Z,9.07
2018-09-03T13:32:29.270Z,7.37
2018-09-03T13:34:56.582Z,8.53
2018-09-03T13:37:23.888Z,9.23
2018-09-03T13:39:51.189Z,8.60
2018-09-03T13:42:18.528Z,13.93
2018-09-03T13:44:45.930Z,10.60
2018-09-03T13:47:13.250Z,11.70
2018-09-03T13:49:40.654Z,9.57
2018-09-03T13:52:07.933Z,6.03
2018-09-03T13:54:35.181Z,10.40
2018-09-03T13:57:02.485Z,8.30
2018-09-03T13:59:29.785Z,10.63
2018-09-03T14:01:57.241Z,7.07
2018-09-03T14:04:25.208Z,9.60
2018-09-03T14:06:52.612Z,8.40
2018-09-03T14:09:19.988Z,7.53
2018-09-03T14:11:47.261Z,7.20
2018-09-03T14:14:14.663Z,14.20
2018-09-03T14:16:41.930Z,9.10
2018-09-03T14:19:09.263Z,5.37
2018-09-03T14:21:36.644Z,6.73
2018-09-03T14:24:03.978Z,20.13
2018-09-03T14:26:31.250Z,6.20
2018-09-03T14:28:58.563Z,6.17
2018-09-03T14:31:25.910Z,7.10
2018-09-03T14:33:53.514Z,4.90
2018-09-03T14:36:20.883Z,4.27
2018-09-03T14:38:48.152Z,4.03
2018-09-03T14:41:15.454Z,5.90
2018-09-03T14:43:42.932Z,4.40
2018-09-03T14:46:10.190Z,8.17
2018-09-03T14:48:37.605Z,4.53
2018-09-03T14:51:05.007Z,6.40
2018-09-03T14:53:32.241Z,4.70
2018-09-03T14:55:59.648Z,3.83
2018-09-03T14:58:27.017Z,4.07
2018-09-03T15:00:54.300Z,3.40
2018-09-03T15:03:21.607Z,5.20
2018-09-03T15:05:48.863Z,6.23
2018-09-03T15:08:16.223Z,4.10
2018-09-03T15:10:43.755Z,4.27
2018-09-03T15:13:11.061Z,5.17
2018-09-03T15:15:38.335Z,4.30
2018-09-03T15:18:05.647Z,10.80
2018-09-03T15:20:32.920Z,6.30
2018-09-03T15:23:00.233Z,7.97
2018-09-03T15:25:27.765Z,5.53
2018-09-03T15:27:55.110Z,6.23
2018-09-03T15:30:22.526Z,7.07
2018-09-03T15:32:49.783Z,6.60
2018-09-03T15:35:17.126Z,21.33
2018-09-03T15:37:45.223Z,13.00
2018-09-03T15:40:12.625Z,25.83
2018-09-03T15:42:39.978Z,4.20
2018-09-03T15:45:07.453Z,6.60
2018-09-03T15:47:34.870Z,7.57
2018-09-03T15:50:02.144Z,19.37
2018-09-03T15:52:29.472Z,7.23
2018-09-03T15:54:56.785Z,7.00
2018-09-03T15:57:24.345Z,6.10
2018-09-03T15:59:51.639Z,6.40
2018-09-03T16:02:18.907Z,13.83
2018-09-03T16:04:46.264Z,7.00
2018-09-03T16:07:13.486Z,6.60
2018-09-03T16:09:40.755Z,8.97
2018-09-03T16:12:08.163Z,4.97
2018-09-03T16:14:35.441Z,5.50
2018-09-03T16:17:02.739Z,5.23
2018-09-03T16:19:30.047Z,5.93
2018-09-03T16:21:57.411Z,3.50
2018-09-03T16:24:24.615Z,4.37
2018-09-03T16:26:51.887Z,5.63
2018-09-03T16:29:19.194Z,7.50
2018-09-03T16:31:46.502Z,7.10
2018-09-03T16:34:13.830Z,8.10
2018-09-03T16:36:41.137Z,2.90
2018-09-03T16:40:32.975Z,6.63
2018-09-03T16:43:00.207Z,5.43
2018-09-03T16:45:27.480Z,5.40
2018-09-03T16:47:54.760Z,4.53
2018-09-03T16:50:22.114Z,4.63
2018-09-03T16:52:49.376Z,3.70
2018-09-03T16:55:16.760Z,5.30
2018-09-03T16:57:43.964Z,4.00
2018-09-03T17:00:11.308Z,4.00
2018-09-03T17:02:38.695Z,3.70
2018-09-03T17:05:06.240Z,2.97
2018-09-03T17:07:33.594Z,7.77
2018-09-03T17:10:00.762Z,5.30
2018-09-03T17:12:28.145Z,5.50
2018-09-03T17:16:20.022Z,8.60
2018-09-03T17:18:47.250Z,5.87
2018-09-03T17:21:14.580Z,5.30
2018-09-03T17:23:42.084Z,4.87
2018-09-03T17:26:09.379Z,5.03
2018-09-03T17:28:42.487Z,4.67
2018-09-03T17:31:09.781Z,6.60
2018-09-03T17:33:37.101Z,5.77
2018-09-03T17:36:04.449Z,4.53
2018-09-03T17:38:31.768Z,5.00
2018-09-03T17:40:59.075Z,5.43
2018-09-03T17:43:26.372Z,5.27
2018-09-03T17:45:53.654Z,6.27
2018-09-03T17:48:20.856Z,5.43
2018-09-03T17:50:48.284Z,6.33
2018-09-03T17:53:15.620Z,7.30
2018-09-03T17:55:43.072Z,6.43
2018-09-03T17:58:10.295Z,6.17
2018-09-03T18:00:37.598Z,6.60
2018-09-03T18:03:05.517Z,5.70
2018-09-03T18:05:32.793Z,9.50
2018-09-03T18:08:00.248Z,8.20
2018-09-03T18:10:27.540Z,5.70
2018-09-03T18:12:54.885Z,6.17
2018-09-03T18:15:22.164Z,4.90
2018-09-03T18:17:49.606Z,8.83
2018-09-03T18:20:16.894Z,5.60
2018-09-03T18:22:44.202Z,5.60
2018-09-03T18:25:11.457Z,5.63
2018-09-03T18:27:38.736Z,7.63
2018-09-03T18:30:06.147Z,7.63
2018-09-03T18:32:34.485Z,6.60
2018-09-03T18:35:01.747Z,11.40
2018-09-03T18:37:29.040Z,5.57
2018-09-03T18:39:56.325Z,5.40
2018-09-03T18:42:23.665Z,7.07
2018-09-03T18:44:51.065Z,9.50
2018-09-03T18:47:18.603Z,5.50
2018-09-03T18:49:45.894Z,10.63
2018-09-03T18:52:13.374Z,14.03
2018-09-03T18:54:40.759Z,13.47
2018-09-03T18:57:08.069Z,8.20
2018-09-03T18:59:35.358Z,6.50
2018-09-03T19:02:02.649Z,11.40
2018-09-03T19:04:29.960Z,6.30
2018-09-03T19:06:57.203Z,7.87
2018-09-03T19:09:24.560Z,5.63
2018-09-03T19:11:51.837Z,6.83
2018-09-03T19:14:19.205Z,7.47
2018-09-03T19:16:46.634Z,7.83
2018-09-03T19:19:13.989Z,6.63
2018-09-03T19:21:41.448Z,6.93
2018-09-03T19:24:08.990Z,6.40
2018-09-03T19:26:36.243Z,7.37
2018-09-03T19:29:03.640Z,6.77
2018-09-03T19:31:31.039Z,10.67
2018-09-03T19:33:59.561Z,7.30
2018-09-03T19:36:27.080Z,8.33
2018-09-03T19:38:54.320Z,7.80
2018-09-03T19:41:21.716Z,8.43
2018-09-03T19:43:48.997Z,7.80
2018-09-03T19:46:16.460Z,8.83
2018-09-03T19:48:44.845Z,9.83
2018-09-03T19:51:12.232Z,11.40
2018-09-03T19:53:39.544Z,8.77
2018-09-03T19:56:06.921Z,9.53
2018-09-03T19:58:34.233Z,7.87
2018-09-03T20:01:01.487Z,9.73
2018-09-03T20:03:28.798Z,9.97
2018-09-03T20:05:57.815Z,8.40
2018-09-03T20:08:25.364Z,7.87
2018-09-03T20:10:52.570Z,8.93
2018-09-03T20:13:19.842Z,7.73
2018-09-03T20:15:47.202Z,8.30
2018-09-03T20:18:14.488Z,7.77
2018-09-03T20:20:41.782Z,7.43
2018-09-03T20:23:09.095Z,10.77
2018-09-03T20:25:36.439Z,8.30
2018-09-03T20:28:03.719Z,7.73
2018-09-03T20:30:31.052Z,8.67
2018-09-03T20:32:58.279Z,7.37
2018-09-03T20:38:07.965Z,11.33
2018-09-03T20:40:35.308Z,9.70
2018-09-03T20:43:02.672Z,14.87
2018-09-03T20:45:29.978Z,8.07
2018-09-03T20:47:57.359Z,10.40
2018-09-03T20:50:24.693Z,7.53
2018-09-03T20:52:51.966Z,6.30
2018-09-03T20:55:19.336Z,7.73
2018-09-03T20:57:46.648Z,9.30
2018-09-03T21:00:13.940Z,8.90
2018-09-03T21:02:41.247Z,8.60
2018-09-03T21:05:10.001Z,7.60
2018-09-03T21:07:37.254Z,8.73
2018-09-03T21:10:05.348Z,8.10
2018-09-03T21:12:32.663Z,9.70
2018-09-03T21:14:59.910Z,13.03
2018-09-03T21:17:27.262Z,8.87
2018-09-03T21:19:54.547Z,8.30
2018-09-03T21:22:21.921Z,8.27
2018-09-03T21:24:49.296Z,7.73
2018-09-03T21:27:16.517Z,7.77
2018-09-03T21:29:43.845Z,8.93
2018-09-03T21:32:11.263Z,8.63
2018-09-03T21:34:38.544Z,8.10
2018-09-03T21:37:05.851Z,10.07
2018-09-03T21:39:33.133Z,8.23
2018-09-03T21:42:00.563Z,10.97
2018-09-03T21:44:27.845Z,9.43
2018-09-03T21:46:55.223Z,12.10
2018-09-03T21:49:22.515Z,16.73
2018-09-03T21:51:49.782Z,7.30
2018-09-03T21:54:17.110Z,8.40
2018-09-03T21:56:44.452Z,8.57
2018-09-03T21:59:11.721Z,9.73
2018-09-03T22:01:38.964Z,8.20
2018-09-03T22:04:06.245Z,13.23
2018-09-03T22:06:33.557Z,10.30
2018-09-03T22:09:01.311Z,10.27
2018-09-03T22:11:28.757Z,12.53
2018-09-03T22:13:56.063Z,11.27
2018-09-03T22:16:23.326Z,9.93
2018-09-03T22:18:50.710Z,12.87
2018-09-03T22:21:18.059Z,11.30
2018-09-03T22:23:45.327Z,9.23
2018-09-03T22:26:12.554Z,11.93
2018-09-03T22:28:39.848Z,9.57
2018-09-03T22:31:07.267Z,9.90
2018-09-03T22:33:34.499Z,11.17
2018-09-03T22:36:01.861Z,9.17
2018-09-03T22:38:29.156Z,15.47
2018-09-03T22:40:56.472Z,11.97
2018-09-03T22:43:23.715Z,8.93
2018-09-03T22:45:51.042Z,13.03
2018-09-03T22:48:18.415Z,14.77
2018-09-03T22:50:45.790Z,10.47
2018-09-03T22:54:48.709Z,10.27
2018-09-03T22:57:16.079Z,10.07
2018-09-03T22:59:43.373Z,12.40
2018-09-03T23:02:10.634Z,8.80
2018-09-03T23:04:37.968Z,12.20
2018-09-03T23:07:05.318Z,10.10
2018-09-03T23:09:32.676Z,12.53
2018-09-03T23:13:04.030Z,11.07
2018-09-03T23:15:31.367Z,12.10
2018-09-03T23:17:58.631Z,11.37
2018-09-03T23:20:25.871Z,9.70
2018-09-03T23:22:53.159Z,8.30
2018-09-03T23:25:20.467Z,8.30
2018-09-03T23:27:47.879Z,10.10
2018-09-03T23:30:15.187Z,10.53
2018-09-03T23:32:42.530Z,10.30
2018-09-03T23:35:09.850Z,9.30
2018-09-03T23:37:37.789Z,11.67
2018-09-03T23:40:05.731Z,9.60
2018-09-03T23:42:33.016Z,14.53
2018-09-03T23:45:00.328Z,13.17
2018-09-03T23:47:27.656Z,9.93
2018-09-03T23:49:55.023Z,11.17
2018-09-03T23:52:22.301Z,9.60
2018-09-03T23:54:49.639Z,12.17
2018-09-03T23:57:16.897Z,11.67
2018-09-03T23:59:44.244Z,10.60
